createdAt,value
2023-05-10T00:00:00.310Z,1001
2023-05-10T00:05:00.174Z,1001
2023-05-10T00:10:00.262Z,1001
2023-05-10T00:15:00.241Z,1001
2023-05-10T00:20:00.188Z,1001
2023-05-10T00:25:00.222Z,1001
2023-05-10T00:30:00.315Z,1001
2023-05-10T00:35:00.254Z,1000
2023-05-10T00:40:00.205Z,1000
2023-05-10T00:45:00.264Z,1000
2023-05-10T00:50:00.239Z,1001
2023-05-10T00:55:00.267Z,1001
2023-05-10T01:00:00.252Z,1001
2023-05-10T01:05:00.348Z,1001
2023-05-10T01:10:00.229Z,1001
2023-05-10T01:15:00.234Z,1001
2023-05-10T01:20:00.177Z,1001
2023-05-10T01:25:00.218Z,1001
2023-05-10T01:30:14.187Z,1001
2023-05-10T01:35:00.232Z,1001
2023-05-10T01:40:00.215Z,1001
2023-05-10T01:45:00.230Z,1001
2023-05-10T01:50:00.256Z,1001
2023-05-10T01:55:00.326Z,1001
2023-05-10T02:00:00.248Z,1001
2023-05-10T02:05:00.175Z,1001
2023-05-10T02:10:00.231Z,1001
2023-05-10T02:15:00.232Z,1001
2023-05-10T02:20:00.188Z,1001
2023-05-10T02:25:00.290Z,1001
2023-05-10T02:30:00.203Z,1001
2023-05-10T02:35:00.241Z,1001
2023-05-10T02:40:00.266Z,1001
2023-05-10T02:45:00.220Z,1001
2023-05-10T02:50:00.187Z,1001
2023-05-10T02:55:00.212Z,1001
2023-05-10T03:00:00.190Z,1001
2023-05-10T03:05:00.431Z,1001
2023-05-10T03:10:00.217Z,1001
2023-05-10T03:15:00.272Z,1001
2023-05-10T03:20:00.244Z,1001
2023-05-10T03:25:00.283Z,1001
2023-05-10T03:30:00.283Z,1001
2023-05-10T03:35:00.327Z,1001
2023-05-10T03:40:00.237Z,1001
2023-05-10T03:45:00.237Z,1002
2023-05-10T03:50:00.466Z,1002
2023-05-10T03:55:00.223Z,1002
2023-05-10T04:00:00.242Z,1002
2023-05-10T04:05:00.283Z,1002
2023-05-10T04:10:00.250Z,1002
2023-05-10T04:15:00.304Z,1002
2023-05-10T04:20:00.275Z,1002
2023-05-10T04:25:00.267Z,1002
2023-05-10T04:30:00.206Z,1002
2023-05-10T04:35:00.328Z,1002
2023-05-10T04:40:00.245Z,1002
2023-05-10T04:45:00.317Z,1002
2023-05-10T04:50:00.289Z,1002
2023-05-10T04:55:00.231Z,1002
2023-05-10T05:00:00.356Z,1002
2023-05-10T05:05:00.317Z,1002
2023-05-10T05:10:00.394Z,1002
2023-05-10T05:15:00.315Z,1002
2023-05-10T05:20:00.260Z,1002
2023-05-10T05:25:00.295Z,1002
2023-05-10T05:30:00.219Z,1002
2023-05-10T05:35:00.287Z,1002
2023-05-10T05:40:00.303Z,1002
2023-05-10T05:45:00.293Z,1002
2023-05-10T05:50:00.263Z,1002
2023-05-10T05:55:00.294Z,1002
2023-05-10T06:00:00.354Z,1002
2023-05-10T06:05:00.310Z,1002
2023-05-10T06:10:00.270Z,1002
2023-05-10T06:15:00.282Z,1002
2023-05-10T06:20:00.254Z,1002
2023-05-10T06:25:00.250Z,1002
2023-05-10T06:30:11.881Z,1003
2023-05-10T06:35:00.242Z,1003
2023-05-10T06:40:00.277Z,1003
2023-05-10T06:45:00.288Z,1003
2023-05-10T06:50:00.235Z,1003
2023-05-10T06:55:00.284Z,1003
2023-05-10T07:00:00.308Z,1003
2023-05-10T07:05:02.793Z,1003
2023-05-10T07:10:00.266Z,1003
2023-05-10T07:15:00.242Z,1003
2023-05-10T07:20:00.439Z,1003
2023-05-10T07:25:00.227Z,1003
2023-05-10T07:30:00.282Z,1003
2023-05-10T07:35:00.235Z,1003
2023-05-10T07:40:00.249Z,1003
2023-05-10T07:45:00.298Z,1003
2023-05-10T07:50:00.248Z,1003
2023-05-10T07:55:00.271Z,1003
2023-05-10T08:00:00.320Z,1003
2023-05-10T08:05:00.281Z,1003
2023-05-10T08:10:00.212Z,1003
2023-05-10T08:15:00.230Z,1003
2023-05-10T08:20:00.312Z,1003
2023-05-10T08:25:00.266Z,1003
2023-05-10T08:30:00.234Z,1003
2023-05-10T08:35:00.267Z,1003
2023-05-10T08:40:00.304Z,1003
2023-05-10T08:45:00.270Z,1003
2023-05-10T08:50:00.253Z,1003
2023-05-10T08:55:00.289Z,1003
2023-05-10T09:00:00.244Z,1003
2023-05-10T09:05:00.384Z,1003
2023-05-10T09:10:00.348Z,1003
2023-05-10T09:15:00.298Z,1004
2023-05-10T09:20:00.234Z,1003
2023-05-10T09:25:00.276Z,1003
2023-05-10T09:30:00.299Z,1003
2023-05-10T09:35:00.262Z,1004
2023-05-10T09:40:00.268Z,1004
2023-05-10T09:45:00.273Z,1004
2023-05-10T09:50:00.238Z,1004
2023-05-10T09:55:00.245Z,1004
2023-05-10T10:00:00.258Z,1004
2023-05-10T10:05:00.355Z,1004
2023-05-10T10:10:00.235Z,1004
2023-05-10T10:15:00.297Z,1004
2023-05-10T10:20:00.247Z,1004
2023-05-10T10:25:00.294Z,1004
2023-05-10T10:30:00.290Z,1004
2023-05-10T10:35:00.287Z,1004
2023-05-10T10:40:00.280Z,1004
2023-05-10T10:45:00.261Z,1004
2023-05-10T10:50:00.283Z,1004
2023-05-10T10:55:00.276Z,1004
2023-05-10T11:00:00.239Z,1004
2023-05-10T11:05:00.255Z,1004
2023-05-10T11:10:00.208Z,1004
2023-05-10T11:15:00.283Z,1004
2023-05-10T11:20:00.289Z,1004
2023-05-10T11:25:00.350Z,1004
2023-05-10T11:30:00.258Z,1004
2023-05-10T11:35:00.221Z,1004
2023-05-10T11:40:00.233Z,1004
2023-05-10T11:45:00.297Z,1004
2023-05-10T11:50:00.265Z,1004
2023-05-10T11:55:00.225Z,1004
2023-05-10T12:00:00.202Z,1004
2023-05-10T12:05:00.341Z,1004
2023-05-10T12:10:00.293Z,1004
2023-05-10T12:15:00.257Z,1004
2023-05-10T12:20:00.294Z,1004
2023-05-10T12:25:00.265Z,1004
2023-05-10T12:30:00.275Z,1004
2023-05-10T12:35:00.267Z,1004
2023-05-10T12:40:00.304Z,1004
2023-05-10T12:45:00.237Z,1004
2023-05-10T12:50:00.274Z,1004
2023-05-10T12:55:00.295Z,1004
2023-05-10T13:00:00.277Z,1004
2023-05-10T13:05:00.381Z,1004
2023-05-10T13:10:00.228Z,1004
2023-05-10T13:15:00.270Z,1005
2023-05-10T13:20:00.288Z,1005
2023-05-10T13:25:00.254Z,1005
2023-05-10T13:30:00.330Z,1005
2023-05-10T13:35:00.307Z,1005
2023-05-10T13:40:00.494Z,1005
2023-05-10T13:45:00.249Z,1005
2023-05-10T13:50:00.244Z,1005
2023-05-10T13:55:00.267Z,1005
2023-05-10T14:00:00.281Z,1005
2023-05-10T14:05:00.274Z,1005
2023-05-10T14:10:00.302Z,1005
2023-05-10T14:15:00.352Z,1005
2023-05-10T14:20:00.321Z,1005
2023-05-10T14:25:00.293Z,1005
2023-05-10T14:30:00.302Z,1005
2023-05-10T14:35:00.303Z,1005
2023-05-10T14:40:00.252Z,1005
2023-05-10T14:45:00.291Z,1005
2023-05-10T14:50:00.317Z,1004
2023-05-10T14:55:00.258Z,1005
2023-05-10T15:00:00.257Z,1004
2023-05-10T15:05:00.260Z,1004
2023-05-10T15:10:00.262Z,1005
2023-05-10T15:15:00.295Z,1005
2023-05-10T15:20:00.375Z,1004
2023-05-10T15:25:00.281Z,1005
2023-05-10T15:30:00.234Z,1005
2023-05-10T15:35:00.295Z,1005
2023-05-10T15:40:00.207Z,1005
2023-05-10T15:45:00.313Z,1005
2023-05-10T15:50:00.260Z,1005
2023-05-10T15:55:00.264Z,1005
2023-05-10T16:00:00.217Z,1005
2023-05-10T16:05:00.372Z,1005
2023-05-10T16:10:00.276Z,1005
2023-05-10T16:15:00.228Z,1005
2023-05-10T16:20:00.231Z,1005
2023-05-10T16:25:00.258Z,1005
2023-05-10T16:30:00.270Z,1005
2023-05-10T16:35:00.308Z,1005
2023-05-10T16:40:00.430Z,1005
2023-05-10T16:45:00.224Z,1005
2023-05-10T16:50:00.253Z,1005
2023-05-10T16:55:00.399Z,1005
2023-05-10T17:00:00.349Z,1005
2023-05-10T17:05:00.284Z,1005
2023-05-10T17:10:00.354Z,1005
2023-05-10T17:15:00.455Z,1005
2023-05-10T17:20:00.227Z,1005
2023-05-10T17:25:00.220Z,1005
2023-05-10T17:30:00.194Z,1005
2023-05-10T17:35:00.293Z,1005
2023-05-10T17:40:00.221Z,1005
2023-05-10T17:45:00.294Z,1005
2023-05-10T17:50:00.225Z,1005
2023-05-10T17:55:00.314Z,1005
2023-05-10T18:00:00.237Z,1006
2023-05-10T18:05:00.474Z,1005
2023-05-10T18:10:00.264Z,1006
2023-05-10T18:15:00.454Z,1006
2023-05-10T18:20:00.226Z,1006
2023-05-10T18:25:00.315Z,1006
2023-05-10T18:30:00.224Z,1006
2023-05-10T18:35:00.272Z,1006
2023-05-10T18:40:00.259Z,1006
2023-05-10T18:45:00.240Z,1006
2023-05-10T18:50:00.228Z,1006
2023-05-10T18:55:00.252Z,1006
2023-05-10T19:00:00.260Z,1006
2023-05-10T19:05:00.491Z,1006
2023-05-10T19:10:00.259Z,1006
2023-05-10T19:15:00.276Z,1006
2023-05-10T19:20:00.274Z,1006
2023-05-10T19:25:00.278Z,1007
2023-05-10T19:30:00.346Z,1007
2023-05-10T19:35:00.220Z,1007
2023-05-10T19:40:00.290Z,1007
2023-05-10T19:45:00.404Z,1007
2023-05-10T19:50:00.393Z,1007
2023-05-10T19:55:00.267Z,1007
2023-05-10T20:00:00.291Z,1007
2023-05-10T20:05:00.280Z,1007
2023-05-10T20:10:00.277Z,1007
2023-05-10T20:15:00.331Z,1007
2023-05-10T20:20:00.312Z,1007
2023-05-10T20:25:00.345Z,1007
2023-05-10T20:30:00.398Z,1007
2023-05-10T20:35:00.271Z,1007
2023-05-10T20:40:00.252Z,1007
2023-05-10T20:45:00.386Z,1007
2023-05-10T20:50:00.321Z,1007
2023-05-10T20:55:00.221Z,1007
2023-05-10T21:00:00.157Z,1007
2023-05-10T21:05:00.298Z,1007
2023-05-10T21:10:00.241Z,1007
2023-05-10T21:15:00.259Z,1007
2023-05-10T21:20:00.339Z,1007
2023-05-10T21:25:00.590Z,1007
2023-05-10T21:30:00.181Z,1007
2023-05-10T21:35:00.263Z,1007
2023-05-10T21:40:00.219Z,1007
2023-05-10T21:45:00.255Z,1007
2023-05-10T21:50:00.255Z,1007
2023-05-10T21:55:00.267Z,1007
2023-05-10T22:00:00.188Z,1007
2023-05-10T22:05:00.251Z,1007
2023-05-10T22:10:00.188Z,1007
2023-05-10T22:20:00.168Z,1007
2023-05-10T22:25:00.270Z,1007
2023-05-10T22:30:00.168Z,1007
2023-05-10T22:35:00.257Z,1007
2023-05-10T22:40:00.244Z,1007
2023-05-10T22:45:00.225Z,1007
2023-05-10T22:50:00.265Z,1007
2023-05-10T22:55:00.239Z,1007
2023-05-10T23:00:00.221Z,1007
2023-05-10T23:05:00.314Z,1007
2023-05-10T23:10:00.248Z,1007
2023-05-10T23:15:00.244Z,1007
2023-05-10T23:20:00.212Z,1007
2023-05-10T23:25:00.246Z,1007
2023-05-10T23:30:00.203Z,1007
2023-05-10T23:35:00.158Z,1007
2023-05-10T23:40:00.268Z,1007
2023-05-10T23:45:00.260Z,1007
2023-05-10T23:50:00.213Z,1007
2023-05-10T23:55:00.256Z,1007
